sensor_id;sensor_type;location;lat;lon;timestamp;pressure;altitude;pressure_sealevel;temperature;humidity
78168;BME280;67410;42.698;23.378;2024-02-26T00:00:42;95178.63;;;6.03;92.07
78168;BME280;67410;42.698;23.378;2024-02-26T00:03:09;95174.81;;;6.05;91.48
78168;BME280;67410;42.698;23.378;2024-02-26T00:05:35;95178.03;;;6.07;90.80
78168;BME280;67410;42.698;23.378;2024-02-26T00:08:01;95161.97;;;6.10;91.33
78168;BME280;67410;42.698;23.378;2024-02-26T00:10:27;95175.25;;;6.16;90.65
78168;BME280;67410;42.698;23.378;2024-02-26T00:12:53;95164.81;;;6.16;90.89
78168;BME280;67410;42.698;23.378;2024-02-26T00:15:19;95158.78;;;6.15;90.43
78168;BME280;67410;42.698;23.378;2024-02-26T00:17:45;95144.09;;;6.14;90.42
78168;BME280;67410;42.698;23.378;2024-02-26T00:20:12;95157.00;;;6.22;90.59
78168;BME280;67410;42.698;23.378;2024-02-26T00:22:39;95172.81;;;6.01;91.65
78168;BME280;67410;42.698;23.378;2024-02-26T00:25:05;95181.50;;;6.15;91.89
78168;BME280;67410;42.698;23.378;2024-02-26T00:27:32;95167.84;;;6.19;91.54
78168;BME280;67410;42.698;23.378;2024-02-26T00:29:58;95154.38;;;6.22;91.73
78168;BME280;67410;42.698;23.378;2024-02-26T00:32:24;95155.41;;;6.28;91.72
78168;BME280;67410;42.698;23.378;2024-02-26T00:34:50;95147.13;;;6.31;91.96
78168;BME280;67410;42.698;23.378;2024-02-26T00:37:16;95150.38;;;6.26;91.23
78168;BME280;67410;42.698;23.378;2024-02-26T00:39:42;95142.31;;;6.28;90.85
78168;BME280;67410;42.698;23.378;2024-02-26T00:42:09;95127.66;;;6.27;90.44
78168;BME280;67410;42.698;23.378;2024-02-26T00:44:35;95132.88;;;6.27;90.63
78168;BME280;67410;42.698;23.378;2024-02-26T00:47:01;95131.88;;;6.28;91.08
78168;BME280;67410;42.698;23.378;2024-02-26T00:49:28;95142.31;;;6.28;90.89
78168;BME280;67410;42.698;23.378;2024-02-26T00:51:54;95134.50;;;6.28;91.31
78168;BME280;67410;42.698;23.378;2024-02-26T00:54:20;95129.25;;;6.28;92.36
78168;BME280;67410;42.698;23.378;2024-02-26T00:56:46;95122.41;;;6.33;91.90
78168;BME280;67410;42.698;23.378;2024-02-26T00:59:12;95126.44;;;6.36;91.72
78168;BME280;67410;42.698;23.378;2024-02-26T01:01:38;95128.84;;;6.31;91.46
78168;BME280;67410;42.698;23.378;2024-02-26T01:04:04;95123.22;;;6.34;90.97
78168;BME280;67410;42.698;23.378;2024-02-26T01:06:30;95121.81;;;6.38;90.72
78168;BME280;67410;42.698;23.378;2024-02-26T01:08:56;95120.00;;;6.38;90.34
78168;BME280;67410;42.698;23.378;2024-02-26T01:11:22;95117.19;;;6.33;90.63
78168;BME280;67410;42.698;23.378;2024-02-26T01:13:49;95116.75;;;6.30;90.29
78168;BME280;67410;42.698;23.378;2024-02-26T01:16:19;95115.75;;;6.31;91.74
78168;BME280;67410;42.698;23.378;2024-02-26T01:18:45;95113.34;;;6.29;91.03
78168;BME280;67410;42.698;23.378;2024-02-26T01:21:11;95112.72;;;6.14;91.76
78168;BME280;67410;42.698;23.378;2024-02-26T01:23:37;95106.25;;;5.97;93.66
78168;BME280;67410;42.698;23.378;2024-02-26T01:26:03;95121.53;;;6.06;93.29
78168;BME280;67410;42.698;23.378;2024-02-26T01:28:30;95115.75;;;6.18;93.07
78168;BME280;67410;42.698;23.378;2024-02-26T01:30:56;95114.16;;;6.30;92.29
78168;BME280;67410;42.698;23.378;2024-02-26T01:33:22;95103.69;;;6.30;92.16
78168;BME280;67410;42.698;23.378;2024-02-26T01:35:49;95111.56;;;6.36;92.23
78168;BME280;67410;42.698;23.378;2024-02-26T01:38:16;95110.16;;;6.47;92.47
78168;BME280;67410;42.698;23.378;2024-02-26T01:40:42;95110.38;;;6.52;92.46
78168;BME280;67410;42.698;23.378;2024-02-26T01:43:08;95115.22;;;6.55;91.95
78168;BME280;67410;42.698;23.378;2024-02-26T01:45:34;95112.59;;;6.62;92.29
78168;BME280;67410;42.698;23.378;2024-02-26T01:48:00;95103.72;;;6.63;92.09
78168;BME280;67410;42.698;23.378;2024-02-26T01:50:27;95104.31;;;6.58;91.66
78168;BME280;67410;42.698;23.378;2024-02-26T01:52:54;95095.09;;;6.49;92.45
78168;BME280;67410;42.698;23.378;2024-02-26T01:55:22;95096.50;;;6.52;92.40
78168;BME280;67410;42.698;23.378;2024-02-26T01:57:50;95100.91;;;6.51;92.79
78168;BME280;67410;42.698;23.378;2024-02-26T02:02:57;95095.47;;;6.59;92.70
78168;BME280;67410;42.698;23.378;2024-02-26T02:05:23;95092.25;;;6.64;91.58
78168;BME280;67410;42.698;23.378;2024-02-26T02:07:50;95094.88;;;6.64;91.73
78168;BME280;67410;42.698;23.378;2024-02-26T02:10:18;95095.47;;;6.66;91.63
78168;BME280;67410;42.698;23.378;2024-02-26T02:12:49;95087.22;;;6.62;91.83
78168;BME280;67410;42.698;23.378;2024-02-26T02:15:16;95095.69;;;6.64;91.62
78168;BME280;67410;42.698;23.378;2024-02-26T02:17:42;95090.25;;;6.66;91.25
78168;BME280;67410;42.698;23.378;2024-02-26T02:20:14;95090.66;;;6.69;91.79
78168;BME280;67410;42.698;23.378;2024-02-26T02:22:40;95088.03;;;6.69;91.87
78168;BME280;67410;42.698;23.378;2024-02-26T02:25:07;95090.88;;;6.74;91.36
78168;BME280;67410;42.698;23.378;2024-02-26T02:27:34;95095.09;;;6.75;90.72
78168;BME280;67410;42.698;23.378;2024-02-26T02:30:01;95090.25;;;6.72;91.14
78168;BME280;67410;42.698;23.378;2024-02-26T02:32:28;95092.25;;;6.70;91.63
78168;BME280;67410;42.698;23.378;2024-02-26T02:34:56;95090.84;;;6.68;90.87
78168;BME280;67410;42.698;23.378;2024-02-26T02:37:22;95099.31;;;6.70;91.53
78168;BME280;67410;42.698;23.378;2024-02-26T02:39:48;95095.50;;;6.72;90.90
78168;BME280;67410;42.698;23.378;2024-02-26T02:42:15;95091.88;;;6.73;90.84
78168;BME280;67410;42.698;23.378;2024-02-26T02:44:41;95102.13;;;6.75;91.61
78168;BME280;67410;42.698;23.378;2024-02-26T02:47:07;95098.72;;;6.81;91.08
78168;BME280;67410;42.698;23.378;2024-02-26T02:49:33;95094.91;;;6.84;91.72
78168;BME280;67410;42.698;23.378;2024-02-26T02:51:59;95105.94;;;6.86;91.28
78168;BME280;67410;42.698;23.378;2024-02-26T02:54:25;95106.16;;;6.77;91.11
78168;BME280;67410;42.698;23.378;2024-02-26T02:56:51;95103.34;;;6.79;90.74
78168;BME280;67410;42.698;23.378;2024-02-26T02:59:17;95105.75;;;6.74;91.03
78168;BME280;67410;42.698;23.378;2024-02-26T03:01:43;95097.72;;;6.75;91.69
78168;BME280;67410;42.698;23.378;2024-02-26T03:04:09;95097.72;;;6.75;91.48
78168;BME280;67410;42.698;23.378;2024-02-26T03:06:36;95105.75;;;6.74;91.43
78168;BME280;67410;42.698;23.378;2024-02-26T03:09:02;95109.19;;;6.74;91.13
78168;BME280;67410;42.698;23.378;2024-02-26T03:11:28;95112.19;;;6.78;91.23
78168;BME280;67410;42.698;23.378;2024-02-26T03:13:54;95113.81;;;6.79;91.01
78168;BME280;67410;42.698;23.378;2024-02-26T03:16:21;95119.03;;;6.79;91.27
78168;BME280;67410;42.698;23.378;2024-02-26T03:18:47;95104.56;;;6.83;90.60
78168;BME280;67410;42.698;23.378;2024-02-26T03:21:13;95107.97;;;6.84;91.13
78168;BME280;67410;42.698;23.378;2024-02-26T03:23:39;95107.97;;;6.84;91.00
78168;BME280;67410;42.698;23.378;2024-02-26T03:26:05;95103.53;;;6.77;90.94
78168;BME280;67410;42.698;23.378;2024-02-26T03:28:32;95096.09;;;6.74;91.48
78168;BME280;67410;42.698;23.378;2024-02-26T03:31:00;95085.22;;;6.71;91.27
78168;BME280;67410;42.698;23.378;2024-02-26T03:33:26;95087.63;;;6.72;90.31
78168;BME280;67410;42.698;23.378;2024-02-26T03:35:52;95088.44;;;6.73;91.29
78168;BME280;67410;42.698;23.378;2024-02-26T03:38:18;95095.09;;;6.75;90.56
78168;BME280;67410;42.698;23.378;2024-02-26T03:40:46;95085.44;;;6.69;90.31
78168;BME280;67410;42.698;23.378;2024-02-26T03:43:13;95087.84;;;6.64;90.60
78168;BME280;67410;42.698;23.378;2024-02-26T03:45:39;95088.84;;;6.63;90.48
78168;BME280;67410;42.698;23.378;2024-02-26T03:48:05;95090.44;;;6.58;91.62
78168;BME280;67410;42.698;23.378;2024-02-26T03:50:31;95087.84;;;6.51;91.22
78168;BME280;67410;42.698;23.378;2024-02-26T03:52:58;95081.41;;;6.47;91.78
78168;BME280;67410;42.698;23.378;2024-02-26T03:55:25;95077.97;;;6.40;91.93
78168;BME280;67410;42.698;23.378;2024-02-26T03:57:54;95081.00;;;6.43;91.16
78168;BME280;67410;42.698;23.378;2024-02-26T04:00:20;95083.41;;;6.45;90.63
78168;BME280;67410;42.698;23.378;2024-02-26T04:02:49;95079.38;;;6.42;90.13
78168;BME280;67410;42.698;23.378;2024-02-26T04:05:15;95087.22;;;6.36;90.21
78168;BME280;67410;42.698;23.378;2024-02-26T04:07:41;95086.00;;;6.38;90.82
78168;BME280;67410;42.698;23.378;2024-02-26T04:10:11;95081.19;;;6.35;90.68
78168;BME280;67410;42.698;23.378;2024-02-26T04:12:40;95073.13;;;6.30;90.08
78168;BME280;67410;42.698;23.378;2024-02-26T04:15:10;95085.41;;;6.23;91.35
78168;BME280;67410;42.698;23.378;2024-02-26T04:17:37;95080.75;;;6.12;91.94
78168;BME280;67410;42.698;23.378;2024-02-26T04:20:05;95073.09;;;6.10;91.89
78168;BME280;67410;42.698;23.378;2024-02-26T04:22:32;95072.09;;;6.11;92.10
78168;BME280;67410;42.698;23.378;2024-02-26T04:24:59;95064.47;;;6.17;92.10
78168;BME280;67410;42.698;23.378;2024-02-26T04:27:25;95062.69;;;6.24;92.15
78168;BME280;67410;42.698;23.378;2024-02-26T04:29:51;95059.88;;;6.25;91.71
78168;BME280;67410;42.698;23.378;2024-02-26T04:32:18;95060.47;;;6.21;90.97
78168;BME280;67410;42.698;23.378;2024-02-26T04:34:44;95065.88;;;6.19;91.32
78168;BME280;67410;42.698;23.378;2024-02-26T04:37:10;95061.66;;;6.11;92.50
78168;BME280;67410;42.698;23.378;2024-02-26T04:39:37;95069.06;;;6.08;92.02
78168;BME280;67410;42.698;23.378;2024-02-26T04:42:03;95071.47;;;6.03;92.23
78168;BME280;67410;42.698;23.378;2024-02-26T04:44:29;95072.25;;;5.90;91.67
78168;BME280;67410;42.698;23.378;2024-02-26T04:46:56;95075.44;;;5.86;92.09
78168;BME280;67410;42.698;23.378;2024-02-26T04:49:22;95079.72;;;5.93;92.45
78168;BME280;67410;42.698;23.378;2024-02-26T04:51:48;95077.50;;;5.97;91.72
78168;BME280;67410;42.698;23.378;2024-02-26T04:54:14;95078.72;;;6.01;91.81
78168;BME280;67410;42.698;23.378;2024-02-26T04:56:41;95074.69;;;5.98;92.19
78168;BME280;67410;42.698;23.378;2024-02-26T04:59:07;95079.13;;;6.04;91.04
78168;BME280;67410;42.698;23.378;2024-02-26T05:01:33;95084.16;;;6.13;91.33
78168;BME280;67410;42.698;23.378;2024-02-26T05:03:59;95080.34;;;6.15;90.75
78168;BME280;67410;42.698;23.378;2024-02-26T05:06:25;95087.00;;;6.18;90.60
78168;BME280;67410;42.698;23.378;2024-02-26T05:08:51;95092.84;;;6.20;91.06
78168;BME280;67410;42.698;23.378;2024-02-26T05:11:18;95101.28;;;6.22;91.15
78168;BME280;67410;42.698;23.378;2024-02-26T05:13:44;95096.66;;;6.24;90.70
78168;BME280;67410;42.698;23.378;2024-02-26T05:16:11;95104.72;;;6.22;90.65
78168;BME280;67410;42.698;23.378;2024-02-26T05:18:37;95105.50;;;6.23;90.41
78168;BME280;67410;42.698;23.378;2024-02-26T05:21:03;95115.16;;;6.22;91.34
78168;BME280;67410;42.698;23.378;2024-02-26T05:23:29;95118.38;;;6.24;90.71
78168;BME280;67410;42.698;23.378;2024-02-26T05:25:56;95119.56;;;6.15;90.99
78168;BME280;67410;42.698;23.378;2024-02-26T05:28:22;95115.31;;;6.07;91.51
78168;BME280;67410;42.698;23.378;2024-02-26T05:30:48;95119.31;;;5.97;91.97
78168;BME280;67410;42.698;23.378;2024-02-26T05:33:15;95119.13;;;6.05;92.36
78168;BME280;67410;42.698;23.378;2024-02-26T05:35:41;95126.56;;;6.08;92.35
78168;BME280;67410;42.698;23.378;2024-02-26T05:38:08;95129.22;;;6.15;92.39
78168;BME280;67410;42.698;23.378;2024-02-26T05:40:34;95131.81;;;6.08;93.23
78168;BME280;67410;42.698;23.378;2024-02-26T05:43:00;95142.31;;;6.28;92.28
78168;BME280;67410;42.698;23.378;2024-02-26T05:45:27;95135.28;;;6.35;91.99
78168;BME280;67410;42.698;23.378;2024-02-26T05:47:53;95135.91;;;6.37;92.09
78168;BME280;67410;42.698;23.378;2024-02-26T05:50:20;95136.53;;;6.45;91.32
78168;BME280;67410;42.698;23.378;2024-02-26T05:52:47;95135.34;;;6.55;91.69
78168;BME280;67410;42.698;23.378;2024-02-26T05:55:14;95139.75;;;6.61;92.06
78168;BME280;67410;42.698;23.378;2024-02-26T05:57:43;95135.31;;;6.68;91.50
78168;BME280;67410;42.698;23.378;2024-02-26T06:00:10;95134.31;;;6.69;91.54
78168;BME280;67410;42.698;23.378;2024-02-26T06:02:37;95148.22;;;6.76;91.16
78168;BME280;67410;42.698;23.378;2024-02-26T06:05:04;95145.00;;;6.81;90.86
78168;BME280;67410;42.698;23.378;2024-02-26T06:07:30;95147.81;;;6.86;91.28
78168;BME280;67410;42.698;23.378;2024-02-26T06:09:57;95151.22;;;6.86;91.85
78168;BME280;67410;42.698;23.378;2024-02-26T06:12:23;95150.22;;;6.94;91.56
78168;BME280;67410;42.698;23.378;2024-02-26T06:14:49;95159.50;;;7.03;90.98
78168;BME280;67410;42.698;23.378;2024-02-26T06:17:15;95154.47;;;7.08;91.04
78168;BME280;67410;42.698;23.378;2024-02-26T06:19:42;95156.25;;;7.14;91.11
78168;BME280;67410;42.698;23.378;2024-02-26T06:22:08;95154.47;;;7.01;90.80
78168;BME280;67410;42.698;23.378;2024-02-26T06:24:34;95158.28;;;7.05;90.66
78168;BME280;67410;42.698;23.378;2024-02-26T06:27:00;95155.25;;;7.15;90.55
78168;BME280;67410;42.698;23.378;2024-02-26T06:29:26;95157.66;;;7.17;90.61
78168;BME280;67410;42.698;23.378;2024-02-26T06:31:52;95151.81;;;7.21;90.75
78168;BME280;67410;42.698;23.378;2024-02-26T06:34:18;95159.28;;;7.31;90.08
78168;BME280;67410;42.698;23.378;2024-02-26T06:36:45;95161.25;;;7.42;90.26
78168;BME280;67410;42.698;23.378;2024-02-26T06:39:11;95160.44;;;7.48;89.47
78168;BME280;67410;42.698;23.378;2024-02-26T06:41:38;95155.00;;;7.56;88.87
78168;BME280;67410;42.698;23.378;2024-02-26T06:44:05;95161.78;;;7.70;89.04
78168;BME280;67410;42.698;23.378;2024-02-26T06:46:31;95155.31;;;7.79;88.85
78168;BME280;67410;42.698;23.378;2024-02-26T06:48:59;95165.22;;;7.77;88.71
78168;BME280;67410;42.698;23.378;2024-02-26T06:51:25;95157.94;;;7.86;87.96
78168;BME280;67410;42.698;23.378;2024-02-26T06:53:53;95148.00;;;7.95;88.15
78168;BME280;67410;42.698;23.378;2024-02-26T06:56:20;95153.44;;;8.00;87.64
78168;BME280;67410;42.698;23.378;2024-02-26T06:58:46;95149.81;;;7.94;87.77
78168;BME280;67410;42.698;23.378;2024-02-26T07:01:12;95151.41;;;7.95;88.22
78168;BME280;67410;42.698;23.378;2024-02-26T07:03:41;95154.84;;;8.02;87.62
78168;BME280;67410;42.698;23.378;2024-02-26T07:06:08;95160.69;;;7.98;87.25
78168;BME280;67410;42.698;23.378;2024-02-26T07:08:34;95161.47;;;8.05;87.15
78168;BME280;67410;42.698;23.378;2024-02-26T07:11:00;95161.78;;;8.22;86.29
78168;BME280;67410;42.698;23.378;2024-02-26T07:13:26;95168.63;;;8.29;86.39
78168;BME280;67410;42.698;23.378;2024-02-26T07:15:53;95171.84;;;8.31;86.18
78168;BME280;67410;42.698;23.378;2024-02-26T07:18:19;95170.41;;;8.42;85.65
78168;BME280;67410;42.698;23.378;2024-02-26T07:20:45;95175.41;;;8.50;85.30
78168;BME280;67410;42.698;23.378;2024-02-26T07:23:11;95170.50;;;8.60;85.47
78168;BME280;67410;42.698;23.378;2024-02-26T07:25:38;95165.44;;;8.65;85.26
78168;BME280;67410;42.698;23.378;2024-02-26T07:28:11;95174.66;;;8.74;85.40
78168;BME280;67410;42.698;23.378;2024-02-26T07:30:37;95175.81;;;8.78;84.53
78168;BME280;67410;42.698;23.378;2024-02-26T07:33:03;95175.16;;;8.90;84.00
78168;BME280;67410;42.698;23.378;2024-02-26T07:35:30;95178.16;;;8.93;83.63
78168;BME280;67410;42.698;23.378;2024-02-26T07:37:58;95180.28;;;9.03;83.54
78168;BME280;67410;42.698;23.378;2024-02-26T07:40:24;95184.28;;;9.12;83.61
78168;BME280;67410;42.698;23.378;2024-02-26T07:42:50;95173.88;;;9.24;82.50
78168;BME280;67410;42.698;23.378;2024-02-26T07:45:16;95184.91;;;9.32;81.81
78168;BME280;67410;42.698;23.378;2024-02-26T07:47:46;95180.13;;;9.47;82.16
78168;BME280;67410;42.698;23.378;2024-02-26T07:50:12;95178.75;;;9.63;81.54
78168;BME280;67410;42.698;23.378;2024-02-26T07:52:39;95178.63;;;9.76;80.45
78168;BME280;67410;42.698;23.378;2024-02-26T07:55:07;95176.75;;;9.83;79.92
78168;BME280;67410;42.698;23.378;2024-02-26T07:57:33;95182.00;;;9.83;78.68
78168;BME280;67410;42.698;23.378;2024-02-26T08:00:03;95179.00;;;9.80;80.04
78168;BME280;67410;42.698;23.378;2024-02-26T08:02:29;95177.19;;;9.99;80.30
78168;BME280;67410;42.698;23.378;2024-02-26T08:04:55;95174.03;;;10.08;79.41
78168;BME280;67410;42.698;23.378;2024-02-26T08:07:21;95169.22;;;10.24;79.16
78168;BME280;67410;42.698;23.378;2024-02-26T08:09:48;95166.28;;;10.32;78.97
78168;BME280;67410;42.698;23.378;2024-02-26T08:12:14;95163.63;;;10.50;78.36
78168;BME280;67410;42.698;23.378;2024-02-26T08:14:40;95159.31;;;10.67;77.47
78168;BME280;67410;42.698;23.378;2024-02-26T08:17:06;95164.97;;;10.82;76.58
78168;BME280;67410;42.698;23.378;2024-02-26T08:19:34;95159.03;;;10.99;76.39
78168;BME280;67410;42.698;23.378;2024-02-26T08:22:02;95158.03;;;11.00;75.73
78168;BME280;67410;42.698;23.378;2024-02-26T08:24:28;95155.72;;;10.92;75.04
78168;BME280;67410;42.698;23.378;2024-02-26T08:26:54;95158.94;;;11.05;75.61
78168;BME280;67410;42.698;23.378;2024-02-26T08:29:20;95166.91;;;11.40;74.35
78168;BME280;67410;42.698;23.378;2024-02-26T08:31:46;95165.63;;;11.31;74.44
78168;BME280;67410;42.698;23.378;2024-02-26T08:34:12;95162.53;;;11.58;74.39
78168;BME280;67410;42.698;23.378;2024-02-26T08:36:38;95157.72;;;11.66;73.01
78168;BME280;67410;42.698;23.378;2024-02-26T08:39:05;95166.44;;;11.67;73.66
78168;BME280;67410;42.698;23.378;2024-02-26T08:41:31;95155.78;;;11.62;72.40
78168;BME280;67410;42.698;23.378;2024-02-26T08:43:57;95156.91;;;11.77;72.09
78168;BME280;67410;42.698;23.378;2024-02-26T08:46:24;95157.38;;;11.74;71.84
78168;BME280;67410;42.698;23.378;2024-02-26T08:48:50;95151.75;;;11.82;71.93
78168;BME280;67410;42.698;23.378;2024-02-26T08:51:16;95150.78;;;12.12;71.98
78168;BME280;67410;42.698;23.378;2024-02-26T08:53:43;95155.34;;;12.57;70.51
78168;BME280;67410;42.698;23.378;2024-02-26T08:56:10;95161.84;;;12.66;68.72
78168;BME280;67410;42.698;23.378;2024-02-26T08:58:43;95161.66;;;12.56;69.97
78168;BME280;67410;42.698;23.378;2024-02-26T09:01:09;95163.75;;;12.53;68.69
78168;BME280;67410;42.698;23.378;2024-02-26T09:03:35;95155.59;;;12.55;69.24
78168;BME280;67410;42.698;23.378;2024-02-26T09:06:01;95152.47;;;12.30;71.10
78168;BME280;67410;42.698;23.378;2024-02-26T09:08:28;95156.31;;;12.67;69.87
78168;BME280;67410;42.698;23.378;2024-02-26T09:10:54;95150.34;;;12.88;70.95
78168;BME280;67410;42.698;23.378;2024-02-26T09:13:20;95151.56;;;13.14;68.35
78168;BME280;67410;42.698;23.378;2024-02-26T09:15:46;95151.84;;;13.46;67.56
78168;BME280;67410;42.698;23.378;2024-02-26T09:18:12;95151.13;;;13.17;68.07
78168;BME280;67410;42.698;23.378;2024-02-26T09:20:39;95146.97;;;13.21;68.58
78168;BME280;67410;42.698;23.378;2024-02-26T09:23:05;95141.44;;;13.23;67.49
78168;BME280;67410;42.698;23.378;2024-02-26T09:25:31;95141.81;;;13.48;66.29
78168;BME280;67410;42.698;23.378;2024-02-26T09:27:59;95136.41;;;13.38;65.52
78168;BME280;67410;42.698;23.378;2024-02-26T09:30:28;95124.44;;;13.19;64.36
78168;BME280;67410;42.698;23.378;2024-02-26T09:32:54;95127.88;;;13.19;65.22
78168;BME280;67410;42.698;23.378;2024-02-26T09:35:20;95132.69;;;13.56;63.84
78168;BME280;67410;42.698;23.378;2024-02-26T09:37:47;95118.34;;;13.52;64.00
78168;BME280;67410;42.698;23.378;2024-02-26T09:40:15;95118.94;;;13.37;62.15
78168;BME280;67410;42.698;23.378;2024-02-26T09:42:46;95113.63;;;13.37;64.63
78168;BME280;67410;42.698;23.378;2024-02-26T09:45:17;95122.00;;;13.51;63.72
78168;BME280;67410;42.698;23.378;2024-02-26T09:47:44;95122.03;;;13.73;61.97
78168;BME280;67410;42.698;23.378;2024-02-26T09:50:11;95113.34;;;13.55;62.09
78168;BME280;67410;42.698;23.378;2024-02-26T09:52:41;95121.13;;;13.45;63.13
78168;BME280;67410;42.698;23.378;2024-02-26T09:55:08;95118.44;;;13.24;62.89
78168;BME280;67410;42.698;23.378;2024-02-26T09:57:38;95115.06;;;13.28;63.56
78168;BME280;67410;42.698;23.378;2024-02-26T10:00:08;95125.88;;;13.43;61.65
78168;BME280;67410;42.698;23.378;2024-02-26T10:02:36;95115.78;;;13.24;62.45
78168;BME280;67410;42.698;23.378;2024-02-26T10:05:10;95118.41;;;13.40;61.30
78168;BME280;67410;42.698;23.378;2024-02-26T10:07:38;95118.75;;;13.27;61.58
78168;BME280;67410;42.698;23.378;2024-02-26T10:10:04;95117.09;;;13.38;60.77
78168;BME280;67410;42.698;23.378;2024-02-26T10:12:31;95120.94;;;13.30;60.54
78168;BME280;67410;42.698;23.378;2024-02-26T10:14:58;95116.19;;;13.32;59.93
78168;BME280;67410;42.698;23.378;2024-02-26T10:17:25;95116.84;;;13.39;60.73
78168;BME280;67410;42.698;23.378;2024-02-26T10:19:53;95117.69;;;13.45;59.88
78168;BME280;67410;42.698;23.378;2024-02-26T10:22:22;95106.75;;;13.36;60.44
78168;BME280;67410;42.698;23.378;2024-02-26T10:24:48;95104.81;;;13.32;59.90
78168;BME280;67410;42.698;23.378;2024-02-26T10:27:15;95108.41;;;13.42;59.12
78168;BME280;67410;42.698;23.378;2024-02-26T10:29:41;95096.59;;;13.50;59.16
78168;BME280;67410;42.698;23.378;2024-02-26T10:32:09;95083.63;;;13.48;59.85
78168;BME280;67410;42.698;23.378;2024-02-26T10:34:37;95100.53;;;13.64;58.68
78168;BME280;67410;42.698;23.378;2024-02-26T10:37:05;95084.00;;;13.57;58.46
78168;BME280;67410;42.698;23.378;2024-02-26T10:39:31;95084.19;;;13.72;60.46
78168;BME280;67410;42.698;23.378;2024-02-26T10:42:00;95087.00;;;13.82;59.20
78168;BME280;67410;42.698;23.378;2024-02-26T10:44:35;95072.72;;;13.83;58.96
78168;BME280;67410;42.698;23.378;2024-02-26T10:47:06;95079.53;;;13.58;59.57
78168;BME280;67410;42.698;23.378;2024-02-26T10:49:35;95077.13;;;13.56;59.00
78168;BME280;67410;42.698;23.378;2024-02-26T10:52:01;95073.69;;;13.55;59.03
78168;BME280;67410;42.698;23.378;2024-02-26T10:54:29;95074.53;;;13.39;59.12
78168;BME280;67410;42.698;23.378;2024-02-26T10:56:57;95072.56;;;13.73;58.71
78168;BME280;67410;42.698;23.378;2024-02-26T10:59:24;95066.56;;;13.78;58.58
78168;BME280;67410;42.698;23.378;2024-02-26T11:01:51;95063.53;;;13.91;59.35
78168;BME280;67410;42.698;23.378;2024-02-26T11:04:18;95066.13;;;13.86;58.33
78168;BME280;67410;42.698;23.378;2024-02-26T11:06:44;95067.41;;;13.83;57.52
78168;BME280;67410;42.698;23.378;2024-02-26T11:09:12;95059.66;;;13.77;57.16
78168;BME280;67410;42.698;23.378;2024-02-26T11:11:39;95065.94;;;13.93;57.69
78168;BME280;67410;42.698;23.378;2024-02-26T11:14:08;95067.03;;;13.97;56.39
78168;BME280;67410;42.698;23.378;2024-02-26T11:16:35;95054.78;;;14.12;55.65
78168;BME280;67410;42.698;23.378;2024-02-26T11:19:04;95054.66;;;14.02;55.08
78168;BME280;67410;42.698;23.378;2024-02-26T11:21:34;95059.22;;;14.07;56.02
78168;BME280;67410;42.698;23.378;2024-02-26T11:24:14;95055.94;;;14.21;55.27
78168;BME280;67410;42.698;23.378;2024-02-26T11:26:51;95051.47;;;14.27;55.09
78168;BME280;67410;42.698;23.378;2024-02-26T11:29:52;95057.25;;;14.19;55.05
78168;BME280;67410;42.698;23.378;2024-02-26T11:32:20;95064.16;;;14.25;54.48
78168;BME280;67410;42.698;23.378;2024-02-26T11:34:46;95052.13;;;14.12;55.19
78168;BME280;67410;42.698;23.378;2024-02-26T11:37:16;95048.81;;;14.22;54.80
78168;BME280;67410;42.698;23.378;2024-02-26T11:39:51;95047.09;;;14.11;55.61
78168;BME280;67410;42.698;23.378;2024-02-26T11:42:23;95038.78;;;14.29;55.59
78168;BME280;67410;42.698;23.378;2024-02-26T11:44:51;95042.91;;;14.15;53.67
78168;BME280;67410;42.698;23.378;2024-02-26T11:47:22;95045.72;;;14.08;55.11
78168;BME280;67410;42.698;23.378;2024-02-26T11:49:49;95032.91;;;14.22;54.98
78168;BME280;67410;42.698;23.378;2024-02-26T11:52:16;95032.63;;;14.23;54.84
78168;BME280;67410;42.698;23.378;2024-02-26T11:54:53;95033.78;;;14.33;54.69
78168;BME280;67410;42.698;23.378;2024-02-26T11:57:39;95040.69;;;14.07;57.34
78168;BME280;67410;42.698;23.378;2024-02-26T12:02:52;95036.50;;;14.38;55.62
78168;BME280;67410;42.698;23.378;2024-02-26T12:05:24;95035.88;;;14.31;54.86
78168;BME280;67410;42.698;23.378;2024-02-26T12:08:13;95032.13;;;14.27;53.74
78168;BME280;67410;42.698;23.378;2024-02-26T12:10:42;95029.00;;;14.30;54.18
78168;BME280;67410;42.698;23.378;2024-02-26T12:13:14;95038.78;;;14.29;54.55
78168;BME280;67410;42.698;23.378;2024-02-26T12:15:45;95040.38;;;14.30;54.99
78168;BME280;67410;42.698;23.378;2024-02-26T12:18:20;95028.19;;;14.29;53.59
78168;BME280;67410;42.698;23.378;2024-02-26T12:21:00;95032.34;;;14.42;52.78
78168;BME280;67410;42.698;23.378;2024-02-26T12:23:27;95032.38;;;14.47;53.17
78168;BME280;67410;42.698;23.378;2024-02-26T12:25:58;95034.22;;;14.46;51.65
78168;BME280;67410;42.698;23.378;2024-02-26T12:28:29;95030.56;;;14.52;52.02
78168;BME280;67410;42.698;23.378;2024-02-26T12:30:56;95033.47;;;14.51;52.03
78168;BME280;67410;42.698;23.378;2024-02-26T12:33:26;95036.47;;;14.60;51.01
78168;BME280;67410;42.698;23.378;2024-02-26T12:35:53;95041.69;;;14.54;50.62
78168;BME280;67410;42.698;23.378;2024-02-26T12:38:19;95040.75;;;14.66;51.31
78168;BME280;67410;42.698;23.378;2024-02-26T12:40:46;95028.91;;;14.73;50.68
78168;BME280;67410;42.698;23.378;2024-02-26T12:43:15;95038.59;;;14.95;50.08
78168;BME280;67410;42.698;23.378;2024-02-26T12:45:43;95035.56;;;14.81;50.18
78168;BME280;67410;42.698;23.378;2024-02-26T12:48:12;95037.34;;;15.02;49.70
78168;BME280;67410;42.698;23.378;2024-02-26T12:50:38;95026.97;;;15.01;50.53
78168;BME280;67410;42.698;23.378;2024-02-26T12:53:05;95025.94;;;15.07;48.87
78168;BME280;67410;42.698;23.378;2024-02-26T12:55:32;95031.09;;;15.23;49.09
78168;BME280;67410;42.698;23.378;2024-02-26T12:58:00;95036.34;;;15.13;48.87
78168;BME280;67410;42.698;23.378;2024-02-26T13:00:28;95026.56;;;15.19;49.30